KANE

Anoka County-Blaine (Janes Field) Airport

Minneapolis, Minnesota, USA
METAR KANE 160716Z AUTO 31013G17KT 10SM OVC012 02/M01 A2984 RMK AO2
Observed Flight Rules
Nov-16 @ 07:16 UTC (24 minutes ago) Marginal Visual Flight Rules
Wind Visibility Clouds
310° at 13 knots
 Gusting to 17 knots
10 miles
  • Overcast at 1,200' AGL
Temperatures Readings
Current 2°C / 36°F
Dewpoint -1°C / 30°F
Humidity 81%
Altimeter 29.84" Hg
Pressure 1010 hPa
Elevation 278
METAR KANE 160716Z AUTO 31013G17KT 10SM OVC012 02/M01 A2984 RMK AO2
Observed Flight Rules
Nov-16 @ 07:16 UTC
(24 minutes ago)
MVFR
Wind Visibility
310° at 13 knots
 Gusting to 17 knots
10 miles
Clouds
  • Overcast at 1,200' AGL
Temperature Dewpoint
2°C / 36°F -1°C / 30°F
Humidity Altimeter Pressure
81% 29.84" Hg 1010 hPa